Terminal Aerodrome Forecast
Issued by NWS Jackson, KY

Home | Current Version | Previous Version | Text Only | Print | Product List | Glossary On
Versions: 1 2 3 4 5 6 7 8 9 10 11 12 13 14 15 16 17 18 19
093
FTUS43 KJKL 181046 AAA
TAFJKL
TAF AMD
KJKL 181046Z 1811/1906 00000KT P6SM BKN002 BKN035
      TEMPO 1811/1814 6SM -SHRA BR SCT035 BKN130
     FM181400 15004KT P6SM VCTS SCT025CB SCT250
     FM190200 00000KT P6SM BKN070 BKN150=

USA.gov is the U.S. government's official web portal to all federal, state and local government web resources and services.